Airfield :
LOGIN :

Register | Disclaimer

   EN    FR    IT 

 










Legend :    VFR   Marginal VFR   IFR   Intensive IFR   Very Intensive IFR
Visi :
Ceiling :
>= 8 km
>= 3000ft
5 to 8 km
1000 to 3000 ft
1500m to 5 km
500 to 1000 ft
800 to 1500m
200 to 500 ft
< 800m
< 200 ft
Symbols :   Thunderstorms  Fog  Heavy snow  Heavy precipitations  Wind > 20 kt
SIGMETs :     Misc.  Thunderstorms  Icing  Turbulence  Mountain Waves  Volcanic Ashes






- Airport Elevation : 1416 ft
- IATA code : ZRH


LSZH - Zurich

CURRENT METAR :
  • 191450Z 29003KT 260V320 CAVOK 12/06 Q1021 NOSIG

EXPIRED METARs :
  • 191420Z 29004KT CAVOK 12/07 Q1021 NOSIG
  • 191350Z 30004KT 270V340 CAVOK 11/07 Q1021 NOSIG
  • 191320Z 31004KT 240V350 9999 FEW014 11/07 Q1021 NOSIG
  • 191250Z VRB04KT 9999 FEW010 10/07 Q1021 NOSIG
  • 191220Z 29005KT 260V320 9000 FEW007 09/07 Q1022 NOSIG

TAF TAF LSZH
Valid from the 19 at 15:00 until the 20 at 21:00 UTC


191425Z 1915/2021 VRB03KT CAVOK TX12/1915Z TN02/2005Z TX15/2014Z
BECMG 1920/1922 3000 MIFG NSC
BECMG 1922/1924 1500 BCFG BKN004
BECMG 2000/2002 0800 PRFG VV003
TEMPO 2002/2008 0500 FG VV002
PROB40 2002/2007 0300 FG VV001
BECMG 2008/2011 5000 BR SCT003
BECMG 2009/2012 CAVOK
ATIS : +41 43 816 2295 (DEP) +41 43 816 2294 (ARR)



MET'MAP, your aeronautical weather chart ! - Copyright ORBIFLY December 2007 - Disclaimer

ORBIFLY MET'MAP TEAM :

Programming & Development : Alexandra Zaïnal
Concept & original design : Baudouin d'Aumeries
Assistance for programming : Marc-Olivier Méhu
Technical & hardware support : Manuel Goepfert

Contact : metmap@orbifly.com




SOURCES & CREDITS :

   NOAA